Accueil
METAR-TAF:

METAR-TAF

Aéroports :

Aéroport international de Christchurch

Christchurch, Nouvelle-Zélande

latitude: 43-29S, longitude: 172-33E, altitude: 38 m

Observation

Le bulletin a été fait il y a 15 minutes, à 22:30 UTC
Vent 8 kt de ouest/nord-ouest
Température 15°C
Humidité 67%
Pression 1018 hPa
Visibilité 10 km ou plus
pluie faible

METAR: NZCH 162230Z AUTO 30008KT 9999 -RA OVC085/// 15/09 Q1018 NOSIG

Heure: 11:45 (22:45 UTC)

Prévision

Le bulletin a été fait il y a 5 heures et 44 minutes, à 17:01 UTC
Prévision valable du 16 à 18 UTC au 17 à 18 UTC
Vent 5 kt de ouest/nord-ouest
Visibilité 10 km ou plus
Nuages épars à une hauteur de 7000 ft
pluie faible

TAF: NZCH 161701Z 1618/1718 29005KT 9999 -RA SCT070

Observations et prévisions météorologiques de plus de 4000 aéroports (messages METAR et TAF).

Les stations disponibles sont représentées par des disques jaunes et rouges sur la carte.

Passer la souris dessus pour voir le nom de la station.

Cliquer dessus pour voir les observations et prévisions météorologiques.

Pour changer de carte: cliquez sur les boutons verts avec une croix noire pour zoomer, sur le bouton vert avec un tiret pour effectuer un zoom arrière, ou sur les flèches vertes pour les cartes adjacentes.


METAR-TAF: